sensor_id;sensor_type;location;lat;lon;timestamp;P1;durP1;ratioP1;P2;durP2;ratioP2
10529;SDS011;5313;48.834;9.228;2023-07-28T00:01:12;6.27;;;5.27;;
10529;SDS011;5313;48.834;9.228;2023-07-28T00:03:38;6.67;;;5.13;;
10529;SDS011;5313;48.834;9.228;2023-07-28T00:06:03;7.57;;;5.10;;
10529;SDS011;5313;48.834;9.228;2023-07-28T00:08:29;5.93;;;5.17;;
10529;SDS011;5313;48.834;9.228;2023-07-28T00:10:54;6.83;;;4.67;;
10529;SDS011;5313;48.834;9.228;2023-07-28T00:13:20;8.57;;;4.50;;
10529;SDS011;5313;48.834;9.228;2023-07-28T00:15:45;5.40;;;4.00;;
10529;SDS011;5313;48.834;9.228;2023-07-28T00:18:11;5.03;;;4.50;;
10529;SDS011;5313;48.834;9.228;2023-07-28T00:20:36;6.60;;;4.73;;
10529;SDS011;5313;48.834;9.228;2023-07-28T00:23:02;5.80;;;3.57;;
10529;SDS011;5313;48.834;9.228;2023-07-28T00:25:27;4.87;;;3.80;;
10529;SDS011;5313;48.834;9.228;2023-07-28T00:27:53;6.50;;;4.40;;
10529;SDS011;5313;48.834;9.228;2023-07-28T00:30:18;5.00;;;3.97;;
10529;SDS011;5313;48.834;9.228;2023-07-28T00:32:44;4.00;;;3.50;;
10529;SDS011;5313;48.834;9.228;2023-07-28T00:35:09;4.33;;;3.67;;
10529;SDS011;5313;48.834;9.228;2023-07-28T00:37:35;6.10;;;3.60;;
10529;SDS011;5313;48.834;9.228;2023-07-28T00:40:00;4.87;;;3.60;;
10529;SDS011;5313;48.834;9.228;2023-07-28T00:42:26;5.67;;;3.87;;
10529;SDS011;5313;48.834;9.228;2023-07-28T00:44:51;5.90;;;3.50;;
10529;SDS011;5313;48.834;9.228;2023-07-28T00:47:17;4.63;;;3.57;;
10529;SDS011;5313;48.834;9.228;2023-07-28T00:49:42;4.67;;;3.33;;
10529;SDS011;5313;48.834;9.228;2023-07-28T00:52:08;4.37;;;3.30;;
10529;SDS011;5313;48.834;9.228;2023-07-28T00:54:34;4.83;;;3.30;;
10529;SDS011;5313;48.834;9.228;2023-07-28T00:57:01;6.00;;;3.60;;
10529;SDS011;5313;48.834;9.228;2023-07-28T00:59:26;4.30;;;3.10;;
10529;SDS011;5313;48.834;9.228;2023-07-28T01:01:52;4.87;;;3.40;;
10529;SDS011;5313;48.834;9.228;2023-07-28T01:04:18;3.73;;;3.20;;
10529;SDS011;5313;48.834;9.228;2023-07-28T01:09:24;5.50;;;3.20;;
10529;SDS011;5313;48.834;9.228;2023-07-28T01:11:59;5.40;;;3.60;;
10529;SDS011;5313;48.834;9.228;2023-07-28T01:14:26;5.47;;;3.60;;
10529;SDS011;5313;48.834;9.228;2023-07-28T01:16:51;3.87;;;3.47;;
10529;SDS011;5313;48.834;9.228;2023-07-28T01:19:17;5.97;;;3.57;;
10529;SDS011;5313;48.834;9.228;2023-07-28T01:21:48;6.33;;;3.47;;
10529;SDS011;5313;48.834;9.228;2023-07-28T01:27:30;5.60;;;3.50;;
10529;SDS011;5313;48.834;9.228;2023-07-28T01:29:57;6.10;;;3.40;;
10529;SDS011;5313;48.834;9.228;2023-07-28T01:32:23;5.03;;;3.53;;
10529;SDS011;5313;48.834;9.228;2023-07-28T01:34:48;6.60;;;3.70;;
10529;SDS011;5313;48.834;9.228;2023-07-28T01:37:14;5.80;;;3.60;;
10529;SDS011;5313;48.834;9.228;2023-07-28T01:39:39;4.43;;;3.07;;
10529;SDS011;5313;48.834;9.228;2023-07-28T01:42:05;6.87;;;3.70;;
10529;SDS011;5313;48.834;9.228;2023-07-28T01:44:30;4.90;;;3.53;;
10529;SDS011;5313;48.834;9.228;2023-07-28T01:46:56;5.47;;;3.57;;
10529;SDS011;5313;48.834;9.228;2023-07-28T01:49:21;4.67;;;3.90;;
10529;SDS011;5313;48.834;9.228;2023-07-28T01:51:47;4.70;;;3.70;;
10529;SDS011;5313;48.834;9.228;2023-07-28T01:54:12;4.93;;;4.17;;
10529;SDS011;5313;48.834;9.228;2023-07-28T01:56:38;5.57;;;3.83;;
10529;SDS011;5313;48.834;9.228;2023-07-28T01:59:03;4.80;;;4.03;;
10529;SDS011;5313;48.834;9.228;2023-07-28T02:01:29;4.53;;;3.87;;
10529;SDS011;5313;48.834;9.228;2023-07-28T02:03:54;5.10;;;3.87;;
10529;SDS011;5313;48.834;9.228;2023-07-28T02:06:20;5.53;;;3.93;;
10529;SDS011;5313;48.834;9.228;2023-07-28T02:08:45;5.33;;;3.70;;
10529;SDS011;5313;48.834;9.228;2023-07-28T02:11:11;7.73;;;3.93;;
10529;SDS011;5313;48.834;9.228;2023-07-28T02:13:36;7.00;;;4.20;;
10529;SDS011;5313;48.834;9.228;2023-07-28T02:16:02;5.23;;;3.83;;
10529;SDS011;5313;48.834;9.228;2023-07-28T02:18:27;6.03;;;4.23;;
10529;SDS011;5313;48.834;9.228;2023-07-28T02:20:53;5.43;;;4.07;;
10529;SDS011;5313;48.834;9.228;2023-07-28T02:23:18;4.50;;;3.90;;
10529;SDS011;5313;48.834;9.228;2023-07-28T02:25:44;4.87;;;3.87;;
10529;SDS011;5313;48.834;9.228;2023-07-28T02:28:10;4.47;;;4.07;;
10529;SDS011;5313;48.834;9.228;2023-07-28T02:30:36;4.53;;;3.80;;
10529;SDS011;5313;48.834;9.228;2023-07-28T02:33:02;4.43;;;3.70;;
10529;SDS011;5313;48.834;9.228;2023-07-28T02:35:28;5.77;;;4.20;;
10529;SDS011;5313;48.834;9.228;2023-07-28T02:37:53;6.27;;;4.47;;
10529;SDS011;5313;48.834;9.228;2023-07-28T02:40:19;5.83;;;4.07;;
10529;SDS011;5313;48.834;9.228;2023-07-28T02:42:44;5.30;;;4.10;;
10529;SDS011;5313;48.834;9.228;2023-07-28T02:45:10;5.77;;;3.70;;
10529;SDS011;5313;48.834;9.228;2023-07-28T02:47:35;5.70;;;3.97;;
10529;SDS011;5313;48.834;9.228;2023-07-28T02:50:01;5.43;;;3.70;;
10529;SDS011;5313;48.834;9.228;2023-07-28T02:52:26;6.73;;;3.50;;
10529;SDS011;5313;48.834;9.228;2023-07-28T02:54:52;4.27;;;3.27;;
10529;SDS011;5313;48.834;9.228;2023-07-28T02:57:18;5.23;;;3.20;;
10529;SDS011;5313;48.834;9.228;2023-07-28T02:59:44;4.73;;;3.13;;
10529;SDS011;5313;48.834;9.228;2023-07-28T03:02:10;3.87;;;2.83;;
10529;SDS011;5313;48.834;9.228;2023-07-28T03:04:35;5.60;;;3.00;;
10529;SDS011;5313;48.834;9.228;2023-07-28T03:07:00;3.83;;;2.90;;
10529;SDS011;5313;48.834;9.228;2023-07-28T03:09:26;3.53;;;2.53;;
10529;SDS011;5313;48.834;9.228;2023-07-28T03:11:51;3.60;;;2.93;;
10529;SDS011;5313;48.834;9.228;2023-07-28T03:14:17;3.93;;;2.97;;
10529;SDS011;5313;48.834;9.228;2023-07-28T03:16:43;4.43;;;3.10;;
10529;SDS011;5313;48.834;9.228;2023-07-28T03:19:08;3.87;;;3.10;;
10529;SDS011;5313;48.834;9.228;2023-07-28T03:21:34;3.00;;;2.70;;
10529;SDS011;5313;48.834;9.228;2023-07-28T03:23:59;3.80;;;2.90;;
10529;SDS011;5313;48.834;9.228;2023-07-28T03:26:25;3.50;;;2.77;;
10529;SDS011;5313;48.834;9.228;2023-07-28T03:28:51;6.73;;;2.60;;
10529;SDS011;5313;48.834;9.228;2023-07-28T03:31:16;6.93;;;2.87;;
10529;SDS011;5313;48.834;9.228;2023-07-28T03:33:42;4.37;;;2.83;;
10529;SDS011;5313;48.834;9.228;2023-07-28T03:36:07;3.10;;;2.80;;
10529;SDS011;5313;48.834;9.228;2023-07-28T03:38:33;4.13;;;3.20;;
10529;SDS011;5313;48.834;9.228;2023-07-28T03:40:58;4.17;;;2.60;;
10529;SDS011;5313;48.834;9.228;2023-07-28T03:43:24;4.03;;;2.80;;
10529;SDS011;5313;48.834;9.228;2023-07-28T03:45:50;2.70;;;2.50;;
10529;SDS011;5313;48.834;9.228;2023-07-28T03:48:15;4.80;;;2.97;;
10529;SDS011;5313;48.834;9.228;2023-07-28T03:50:41;4.10;;;2.40;;
10529;SDS011;5313;48.834;9.228;2023-07-28T03:53:06;4.10;;;2.57;;
10529;SDS011;5313;48.834;9.228;2023-07-28T03:55:32;3.73;;;2.60;;
10529;SDS011;5313;48.834;9.228;2023-07-28T03:57:57;4.83;;;2.93;;
10529;SDS011;5313;48.834;9.228;2023-07-28T04:00:23;3.03;;;2.73;;
10529;SDS011;5313;48.834;9.228;2023-07-28T04:02:48;4.17;;;2.90;;
10529;SDS011;5313;48.834;9.228;2023-07-28T04:05:14;3.17;;;2.80;;
10529;SDS011;5313;48.834;9.228;2023-07-28T04:07:39;5.50;;;2.70;;
10529;SDS011;5313;48.834;9.228;2023-07-28T04:10:05;4.10;;;3.30;;
10529;SDS011;5313;48.834;9.228;2023-07-28T04:12:31;4.57;;;3.13;;
10529;SDS011;5313;48.834;9.228;2023-07-28T04:14:56;4.30;;;2.83;;
10529;SDS011;5313;48.834;9.228;2023-07-28T04:17:22;3.77;;;3.07;;
10529;SDS011;5313;48.834;9.228;2023-07-28T04:19:47;3.97;;;3.20;;
10529;SDS011;5313;48.834;9.228;2023-07-28T04:22:13;3.40;;;2.90;;
10529;SDS011;5313;48.834;9.228;2023-07-28T04:24:41;4.13;;;2.70;;
10529;SDS011;5313;48.834;9.228;2023-07-28T04:27:06;4.30;;;3.00;;
10529;SDS011;5313;48.834;9.228;2023-07-28T04:29:32;4.90;;;2.80;;
10529;SDS011;5313;48.834;9.228;2023-07-28T04:31:57;3.77;;;2.80;;
10529;SDS011;5313;48.834;9.228;2023-07-28T04:34:23;3.40;;;2.93;;
10529;SDS011;5313;48.834;9.228;2023-07-28T04:36:48;3.23;;;2.60;;
10529;SDS011;5313;48.834;9.228;2023-07-28T04:39:14;4.10;;;3.23;;
10529;SDS011;5313;48.834;9.228;2023-07-28T04:41:39;4.23;;;3.07;;
10529;SDS011;5313;48.834;9.228;2023-07-28T04:44:05;7.20;;;3.20;;
10529;SDS011;5313;48.834;9.228;2023-07-28T04:46:30;4.50;;;3.30;;
10529;SDS011;5313;48.834;9.228;2023-07-28T04:48:56;4.43;;;3.37;;
10529;SDS011;5313;48.834;9.228;2023-07-28T04:51:22;4.17;;;3.43;;
10529;SDS011;5313;48.834;9.228;2023-07-28T04:53:47;6.30;;;3.33;;
10529;SDS011;5313;48.834;9.228;2023-07-28T04:56:13;5.10;;;4.03;;
10529;SDS011;5313;48.834;9.228;2023-07-28T04:58:38;10.13;;;3.73;;
10529;SDS011;5313;48.834;9.228;2023-07-28T05:01:04;3.80;;;3.40;;
10529;SDS011;5313;48.834;9.228;2023-07-28T05:03:30;4.40;;;3.70;;
10529;SDS011;5313;48.834;9.228;2023-07-28T05:05:55;5.47;;;4.30;;
10529;SDS011;5313;48.834;9.228;2023-07-28T05:08:21;5.10;;;4.20;;
10529;SDS011;5313;48.834;9.228;2023-07-28T05:10:47;6.70;;;4.60;;
10529;SDS011;5313;48.834;9.228;2023-07-28T05:13:12;6.60;;;4.90;;
10529;SDS011;5313;48.834;9.228;2023-07-28T05:15:38;6.63;;;4.80;;
10529;SDS011;5313;48.834;9.228;2023-07-28T05:18:04;5.67;;;4.70;;
10529;SDS011;5313;48.834;9.228;2023-07-28T05:20:29;6.07;;;4.90;;
10529;SDS011;5313;48.834;9.228;2023-07-28T05:22:55;5.87;;;5.00;;
10529;SDS011;5313;48.834;9.228;2023-07-28T05:25:20;6.60;;;4.10;;
10529;SDS011;5313;48.834;9.228;2023-07-28T05:27:47;7.17;;;5.43;;
10529;SDS011;5313;48.834;9.228;2023-07-28T05:30:12;8.30;;;5.20;;
10529;SDS011;5313;48.834;9.228;2023-07-28T05:32:38;5.60;;;5.10;;
10529;SDS011;5313;48.834;9.228;2023-07-28T05:35:03;8.30;;;5.50;;
10529;SDS011;5313;48.834;9.228;2023-07-28T05:37:29;7.13;;;5.00;;
10529;SDS011;5313;48.834;9.228;2023-07-28T05:39:55;7.07;;;5.20;;
10529;SDS011;5313;48.834;9.228;2023-07-28T05:42:20;6.23;;;5.50;;
10529;SDS011;5313;48.834;9.228;2023-07-28T05:44:46;6.53;;;5.60;;
10529;SDS011;5313;48.834;9.228;2023-07-28T05:47:11;8.37;;;6.20;;
10529;SDS011;5313;48.834;9.228;2023-07-28T05:49:37;8.67;;;5.17;;
10529;SDS011;5313;48.834;9.228;2023-07-28T05:52:02;7.50;;;5.97;;
10529;SDS011;5313;48.834;9.228;2023-07-28T05:54:28;8.20;;;5.80;;
10529;SDS011;5313;48.834;9.228;2023-07-28T05:56:54;8.03;;;5.50;;
10529;SDS011;5313;48.834;9.228;2023-07-28T05:59:19;5.30;;;4.80;;
10529;SDS011;5313;48.834;9.228;2023-07-28T06:01:45;8.80;;;5.73;;
10529;SDS011;5313;48.834;9.228;2023-07-28T06:04:10;7.77;;;5.80;;
10529;SDS011;5313;48.834;9.228;2023-07-28T06:06:36;7.10;;;6.37;;
10529;SDS011;5313;48.834;9.228;2023-07-28T06:09:01;7.87;;;5.87;;
10529;SDS011;5313;48.834;9.228;2023-07-28T06:11:27;8.60;;;5.97;;
10529;SDS011;5313;48.834;9.228;2023-07-28T06:13:53;7.87;;;6.67;;
10529;SDS011;5313;48.834;9.228;2023-07-28T06:16:18;9.33;;;6.37;;
10529;SDS011;5313;48.834;9.228;2023-07-28T06:18:44;9.43;;;6.47;;
10529;SDS011;5313;48.834;9.228;2023-07-28T06:21:09;9.03;;;6.83;;
10529;SDS011;5313;48.834;9.228;2023-07-28T06:23:35;13.17;;;7.13;;
10529;SDS011;5313;48.834;9.228;2023-07-28T06:26:00;10.33;;;7.30;;
10529;SDS011;5313;48.834;9.228;2023-07-28T06:28:26;8.80;;;6.90;;
10529;SDS011;5313;48.834;9.228;2023-07-28T06:30:55;6.17;;;5.40;;
10529;SDS011;5313;48.834;9.228;2023-07-28T06:33:21;6.23;;;5.07;;
10529;SDS011;5313;48.834;9.228;2023-07-28T06:35:47;10.50;;;6.37;;
10529;SDS011;5313;48.834;9.228;2023-07-28T06:38:12;6.83;;;5.13;;
10529;SDS011;5313;48.834;9.228;2023-07-28T06:40:38;9.23;;;4.37;;
10529;SDS011;5313;48.834;9.228;2023-07-28T06:43:03;5.90;;;4.50;;
10529;SDS011;5313;48.834;9.228;2023-07-28T06:45:29;6.03;;;4.23;;
10529;SDS011;5313;48.834;9.228;2023-07-28T06:47:55;5.70;;;4.43;;
10529;SDS011;5313;48.834;9.228;2023-07-28T06:50:20;8.03;;;6.10;;
10529;SDS011;5313;48.834;9.228;2023-07-28T06:52:46;9.33;;;6.20;;
10529;SDS011;5313;48.834;9.228;2023-07-28T06:55:13;9.83;;;6.77;;
10529;SDS011;5313;48.834;9.228;2023-07-28T06:57:41;9.63;;;6.90;;
10529;SDS011;5313;48.834;9.228;2023-07-28T07:00:07;9.43;;;7.27;;
10529;SDS011;5313;48.834;9.228;2023-07-28T07:02:36;13.33;;;7.10;;
10529;SDS011;5313;48.834;9.228;2023-07-28T07:05:02;14.43;;;7.83;;
10529;SDS011;5313;48.834;9.228;2023-07-28T07:07:28;11.43;;;7.53;;
10529;SDS011;5313;48.834;9.228;2023-07-28T07:09:53;11.90;;;7.53;;
10529;SDS011;5313;48.834;9.228;2023-07-28T07:12:20;12.63;;;7.23;;
10529;SDS011;5313;48.834;9.228;2023-07-28T07:14:46;11.43;;;7.10;;
10529;SDS011;5313;48.834;9.228;2023-07-28T07:17:12;8.40;;;6.37;;
10529;SDS011;5313;48.834;9.228;2023-07-28T07:19:37;8.70;;;6.47;;
10529;SDS011;5313;48.834;9.228;2023-07-28T07:22:03;12.27;;;7.27;;
10529;SDS011;5313;48.834;9.228;2023-07-28T07:24:28;8.40;;;5.70;;
10529;SDS011;5313;48.834;9.228;2023-07-28T07:26:54;12.03;;;6.33;;
10529;SDS011;5313;48.834;9.228;2023-07-28T07:29:20;14.27;;;5.67;;
10529;SDS011;5313;48.834;9.228;2023-07-28T07:31:45;9.47;;;5.67;;
10529;SDS011;5313;48.834;9.228;2023-07-28T07:34:11;12.00;;;6.00;;
10529;SDS011;5313;48.834;9.228;2023-07-28T07:36:36;9.40;;;5.40;;
10529;SDS011;5313;48.834;9.228;2023-07-28T07:39:02;9.73;;;5.23;;
10529;SDS011;5313;48.834;9.228;2023-07-28T07:41:30;8.43;;;5.80;;
10529;SDS011;5313;48.834;9.228;2023-07-28T07:43:55;8.13;;;5.37;;
10529;SDS011;5313;48.834;9.228;2023-07-28T07:46:22;9.07;;;5.73;;
10529;SDS011;5313;48.834;9.228;2023-07-28T07:48:48;8.90;;;5.23;;
10529;SDS011;5313;48.834;9.228;2023-07-28T07:51:14;8.67;;;5.53;;
10529;SDS011;5313;48.834;9.228;2023-07-28T07:53:39;7.93;;;4.90;;
10529;SDS011;5313;48.834;9.228;2023-07-28T07:56:05;6.07;;;4.70;;
10529;SDS011;5313;48.834;9.228;2023-07-28T07:58:32;9.23;;;4.90;;
10529;SDS011;5313;48.834;9.228;2023-07-28T08:00:58;8.83;;;5.00;;
10529;SDS011;5313;48.834;9.228;2023-07-28T08:03:23;7.17;;;4.70;;
10529;SDS011;5313;48.834;9.228;2023-07-28T08:05:52;9.03;;;5.30;;
10529;SDS011;5313;48.834;9.228;2023-07-28T08:08:18;9.23;;;5.00;;
10529;SDS011;5313;48.834;9.228;2023-07-28T08:10:45;10.67;;;4.90;;
10529;SDS011;5313;48.834;9.228;2023-07-28T08:13:12;7.20;;;4.80;;
10529;SDS011;5313;48.834;9.228;2023-07-28T08:15:37;10.03;;;5.67;;
10529;SDS011;5313;48.834;9.228;2023-07-28T08:18:03;8.80;;;5.30;;
10529;SDS011;5313;48.834;9.228;2023-07-28T08:20:28;9.20;;;6.10;;
10529;SDS011;5313;48.834;9.228;2023-07-28T08:22:55;9.43;;;5.97;;
10529;SDS011;5313;48.834;9.228;2023-07-28T08:25:20;6.93;;;4.70;;
10529;SDS011;5313;48.834;9.228;2023-07-28T08:27:48;8.20;;;5.43;;
10529;SDS011;5313;48.834;9.228;2023-07-28T08:30:13;15.27;;;5.97;;
10529;SDS011;5313;48.834;9.228;2023-07-28T08:32:40;9.23;;;5.10;;
10529;SDS011;5313;48.834;9.228;2023-07-28T08:35:06;6.30;;;4.93;;
10529;SDS011;5313;48.834;9.228;2023-07-28T08:37:33;8.60;;;5.13;;
10529;SDS011;5313;48.834;9.228;2023-07-28T08:39:58;9.93;;;5.90;;
10529;SDS011;5313;48.834;9.228;2023-07-28T08:42:24;11.57;;;6.17;;
10529;SDS011;5313;48.834;9.228;2023-07-28T08:44:50;9.10;;;5.50;;
10529;SDS011;5313;48.834;9.228;2023-07-28T08:47:17;9.27;;;5.27;;
10529;SDS011;5313;48.834;9.228;2023-07-28T08:49:43;7.93;;;5.07;;
10529;SDS011;5313;48.834;9.228;2023-07-28T08:52:09;10.13;;;5.03;;
10529;SDS011;5313;48.834;9.228;2023-07-28T08:54:35;7.17;;;5.13;;
10529;SDS011;5313;48.834;9.228;2023-07-28T08:57:00;6.77;;;4.80;;
10529;SDS011;5313;48.834;9.228;2023-07-28T08:59:26;9.10;;;4.63;;
10529;SDS011;5313;48.834;9.228;2023-07-28T09:01:53;6.07;;;4.60;;
10529;SDS011;5313;48.834;9.228;2023-07-28T09:04:20;6.60;;;4.77;;
10529;SDS011;5313;48.834;9.228;2023-07-28T09:06:47;6.80;;;4.30;;
10529;SDS011;5313;48.834;9.228;2023-07-28T09:09:14;6.53;;;4.57;;
10529;SDS011;5313;48.834;9.228;2023-07-28T09:11:47;5.67;;;4.57;;
10529;SDS011;5313;48.834;9.228;2023-07-28T09:14:15;7.60;;;4.73;;
10529;SDS011;5313;48.834;9.228;2023-07-28T09:16:42;7.17;;;5.10;;
10529;SDS011;5313;48.834;9.228;2023-07-28T09:19:08;8.30;;;4.77;;
10529;SDS011;5313;48.834;9.228;2023-07-28T09:21:34;7.37;;;4.60;;
10529;SDS011;5313;48.834;9.228;2023-07-28T09:24:05;6.33;;;4.20;;
10529;SDS011;5313;48.834;9.228;2023-07-28T09:26:36;7.00;;;3.97;;
10529;SDS011;5313;48.834;9.228;2023-07-28T09:29:24;5.97;;;4.00;;
10529;SDS011;5313;48.834;9.228;2023-07-28T09:31:49;4.00;;;3.30;;
10529;SDS011;5313;48.834;9.228;2023-07-28T09:34:27;6.43;;;3.47;;
10529;SDS011;5313;48.834;9.228;2023-07-28T09:36:54;4.67;;;3.53;;
10529;SDS011;5313;48.834;9.228;2023-07-28T09:39:20;6.90;;;2.90;;
10529;SDS011;5313;48.834;9.228;2023-07-28T09:41:46;6.93;;;3.97;;
10529;SDS011;5313;48.834;9.228;2023-07-28T09:44:12;5.80;;;4.77;;
10529;SDS011;5313;48.834;9.228;2023-07-28T09:46:41;4.80;;;4.10;;
10529;SDS011;5313;48.834;9.228;2023-07-28T09:49:20;3.87;;;3.33;;
10529;SDS011;5313;48.834;9.228;2023-07-28T09:52:15;3.67;;;2.50;;
10529;SDS011;5313;48.834;9.228;2023-07-28T09:54:43;5.07;;;3.07;;
10529;SDS011;5313;48.834;9.228;2023-07-28T09:57:13;4.17;;;2.70;;
10529;SDS011;5313;48.834;9.228;2023-07-28T09:59:42;3.57;;;2.40;;
10529;SDS011;5313;48.834;9.228;2023-07-28T10:02:09;2.90;;;2.10;;
10529;SDS011;5313;48.834;9.228;2023-07-28T10:04:35;3.30;;;2.30;;
10529;SDS011;5313;48.834;9.228;2023-07-28T10:07:01;4.43;;;2.93;;
10529;SDS011;5313;48.834;9.228;2023-07-28T10:09:29;2.83;;;2.30;;
10529;SDS011;5313;48.834;9.228;2023-07-28T10:11:56;3.57;;;2.27;;
10529;SDS011;5313;48.834;9.228;2023-07-28T10:14:25;3.37;;;2.20;;
10529;SDS011;5313;48.834;9.228;2023-07-28T10:16:50;3.03;;;2.07;;
10529;SDS011;5313;48.834;9.228;2023-07-28T10:19:19;3.23;;;2.20;;
10529;SDS011;5313;48.834;9.228;2023-07-28T10:21:45;3.23;;;2.50;;
10529;SDS011;5313;48.834;9.228;2023-07-28T10:24:11;3.77;;;2.20;;
10529;SDS011;5313;48.834;9.228;2023-07-28T10:26:38;3.43;;;2.20;;
10529;SDS011;5313;48.834;9.228;2023-07-28T10:31:36;3.03;;;2.37;;
10529;SDS011;5313;48.834;9.228;2023-07-28T10:34:02;5.13;;;2.30;;
10529;SDS011;5313;48.834;9.228;2023-07-28T10:39:00;5.30;;;2.23;;
10529;SDS011;5313;48.834;9.228;2023-07-28T10:41:36;2.00;;;1.80;;
10529;SDS011;5313;48.834;9.228;2023-07-28T10:44:02;2.40;;;2.00;;
10529;SDS011;5313;48.834;9.228;2023-07-28T10:46:28;6.10;;;2.10;;
10529;SDS011;5313;48.834;9.228;2023-07-28T10:48:54;4.30;;;2.20;;
10529;SDS011;5313;48.834;9.228;2023-07-28T10:51:23;3.00;;;1.97;;
10529;SDS011;5313;48.834;9.228;2023-07-28T10:53:58;4.00;;;2.10;;
10529;SDS011;5313;48.834;9.228;2023-07-28T10:56:24;4.93;;;2.07;;
10529;SDS011;5313;48.834;9.228;2023-07-28T11:01:24;4.37;;;2.27;;
10529;SDS011;5313;48.834;9.228;2023-07-28T11:04:07;3.50;;;2.47;;
10529;SDS011;5313;48.834;9.228;2023-07-28T11:06:40;2.87;;;2.10;;
10529;SDS011;5313;48.834;9.228;2023-07-28T11:09:08;3.53;;;2.20;;
10529;SDS011;5313;48.834;9.228;2023-07-28T11:11:37;3.00;;;2.20;;
10529;SDS011;5313;48.834;9.228;2023-07-28T11:14:04;3.87;;;2.20;;
10529;SDS011;5313;48.834;9.228;2023-07-28T11:16:34;3.33;;;2.33;;
10529;SDS011;5313;48.834;9.228;2023-07-28T11:19:01;3.70;;;2.70;;
10529;SDS011;5313;48.834;9.228;2023-07-28T11:21:28;2.90;;;2.13;;
10529;SDS011;5313;48.834;9.228;2023-07-28T11:23:53;2.90;;;2.20;;
10529;SDS011;5313;48.834;9.228;2023-07-28T11:26:20;3.07;;;2.30;;
10529;SDS011;5313;48.834;9.228;2023-07-28T11:28:47;3.20;;;2.00;;
10529;SDS011;5313;48.834;9.228;2023-07-28T11:31:13;3.43;;;2.00;;
10529;SDS011;5313;48.834;9.228;2023-07-28T11:33:39;2.37;;;2.13;;
10529;SDS011;5313;48.834;9.228;2023-07-28T11:36:05;4.33;;;2.20;;
10529;SDS011;5313;48.834;9.228;2023-07-28T11:38:31;2.93;;;2.00;;
10529;SDS011;5313;48.834;9.228;2023-07-28T11:40:58;2.80;;;1.70;;
10529;SDS011;5313;48.834;9.228;2023-07-28T11:43:24;1.90;;;1.70;;
10529;SDS011;5313;48.834;9.228;2023-07-28T11:45:50;1.93;;;1.73;;
10529;SDS011;5313;48.834;9.228;2023-07-28T11:48:16;3.17;;;1.73;;
10529;SDS011;5313;48.834;9.228;2023-07-28T11:50:42;2.10;;;1.73;;
10529;SDS011;5313;48.834;9.228;2023-07-28T11:53:09;2.13;;;1.17;;
10529;SDS011;5313;48.834;9.228;2023-07-28T11:55:36;1.60;;;1.50;;
10529;SDS011;5313;48.834;9.228;2023-07-28T11:58:05;1.80;;;1.27;;
10529;SDS011;5313;48.834;9.228;2023-07-28T12:00:31;4.43;;;1.33;;
10529;SDS011;5313;48.834;9.228;2023-07-28T12:03:05;1.20;;;1.10;;
10529;SDS011;5313;48.834;9.228;2023-07-28T12:05:34;1.33;;;1.10;;
10529;SDS011;5313;48.834;9.228;2023-07-28T12:08:00;2.57;;;1.10;;
10529;SDS011;5313;48.834;9.228;2023-07-28T12:10:28;3.57;;;1.00;;
10529;SDS011;5313;48.834;9.228;2023-07-28T12:12:53;2.23;;;1.10;;
10529;SDS011;5313;48.834;9.228;2023-07-28T12:15:26;1.57;;;1.17;;
10529;SDS011;5313;48.834;9.228;2023-07-28T12:18:03;1.30;;;1.20;;
10529;SDS011;5313;48.834;9.228;2023-07-28T12:20:33;2.90;;;1.37;;
10529;SDS011;5313;48.834;9.228;2023-07-28T12:23:00;1.57;;;1.30;;
10529;SDS011;5313;48.834;9.228;2023-07-28T12:25:26;1.40;;;1.30;;
10529;SDS011;5313;48.834;9.228;2023-07-28T12:27:51;1.40;;;1.30;;
10529;SDS011;5313;48.834;9.228;2023-07-28T12:30:17;2.17;;;1.50;;
10529;SDS011;5313;48.834;9.228;2023-07-28T12:32:43;1.47;;;1.37;;
10529;SDS011;5313;48.834;9.228;2023-07-28T12:35:09;1.70;;;1.53;;
10529;SDS011;5313;48.834;9.228;2023-07-28T12:37:34;1.50;;;1.30;;
10529;SDS011;5313;48.834;9.228;2023-07-28T12:40:00;1.70;;;1.60;;
10529;SDS011;5313;48.834;9.228;2023-07-28T12:42:26;5.87;;;2.47;;
10529;SDS011;5313;48.834;9.228;2023-07-28T12:44:52;3.13;;;1.50;;
10529;SDS011;5313;48.834;9.228;2023-07-28T12:47:17;2.50;;;1.70;;
10529;SDS011;5313;48.834;9.228;2023-07-28T12:49:43;2.40;;;1.80;;
10529;SDS011;5313;48.834;9.228;2023-07-28T12:52:08;3.80;;;2.00;;
10529;SDS011;5313;48.834;9.228;2023-07-28T12:54:36;5.43;;;2.07;;
10529;SDS011;5313;48.834;9.228;2023-07-28T12:57:04;2.37;;;1.70;;
10529;SDS011;5313;48.834;9.228;2023-07-28T12:59:32;9.17;;;2.10;;
10529;SDS011;5313;48.834;9.228;2023-07-28T13:01:58;4.60;;;2.03;;
10529;SDS011;5313;48.834;9.228;2023-07-28T13:04:23;2.43;;;1.70;;
10529;SDS011;5313;48.834;9.228;2023-07-28T13:06:49;2.37;;;2.00;;
10529;SDS011;5313;48.834;9.228;2023-07-28T13:09:14;3.13;;;2.17;;
10529;SDS011;5313;48.834;9.228;2023-07-28T13:11:40;4.00;;;1.83;;
10529;SDS011;5313;48.834;9.228;2023-07-28T13:14:05;3.10;;;2.20;;
10529;SDS011;5313;48.834;9.228;2023-07-28T13:16:31;3.47;;;1.70;;
10529;SDS011;5313;48.834;9.228;2023-07-28T13:18:56;3.43;;;1.70;;
10529;SDS011;5313;48.834;9.228;2023-07-28T13:21:22;2.40;;;1.83;;
10529;SDS011;5313;48.834;9.228;2023-07-28T13:23:48;2.57;;;2.10;;
10529;SDS011;5313;48.834;9.228;2023-07-28T13:26:14;2.83;;;2.00;;
10529;SDS011;5313;48.834;9.228;2023-07-28T13:28:39;2.43;;;2.00;;
10529;SDS011;5313;48.834;9.228;2023-07-28T13:31:11;3.27;;;2.27;;
10529;SDS011;5313;48.834;9.228;2023-07-28T13:33:37;2.37;;;2.10;;
10529;SDS011;5313;48.834;9.228;2023-07-28T13:36:02;2.80;;;2.30;;
10529;SDS011;5313;48.834;9.228;2023-07-28T13:38:32;4.07;;;2.90;;
10529;SDS011;5313;48.834;9.228;2023-07-28T13:40:57;2.97;;;2.50;;
10529;SDS011;5313;48.834;9.228;2023-07-28T13:43:23;4.27;;;2.80;;
10529;SDS011;5313;48.834;9.228;2023-07-28T13:45:48;4.17;;;2.53;;
10529;SDS011;5313;48.834;9.228;2023-07-28T13:48:14;3.17;;;2.77;;
10529;SDS011;5313;48.834;9.228;2023-07-28T13:50:39;4.30;;;2.53;;
10529;SDS011;5313;48.834;9.228;2023-07-28T13:53:05;3.63;;;2.90;;
10529;SDS011;5313;48.834;9.228;2023-07-28T13:55:30;4.40;;;2.90;;
10529;SDS011;5313;48.834;9.228;2023-07-28T13:57:56;4.50;;;2.63;;
10529;SDS011;5313;48.834;9.228;2023-07-28T14:00:21;4.40;;;3.00;;
10529;SDS011;5313;48.834;9.228;2023-07-28T14:02:47;5.77;;;3.40;;
10529;SDS011;5313;48.834;9.228;2023-07-28T14:05:13;5.10;;;3.60;;
10529;SDS011;5313;48.834;9.228;2023-07-28T14:07:38;4.83;;;4.03;;
10529;SDS011;5313;48.834;9.228;2023-07-28T14:10:04;4.47;;;3.60;;
10529;SDS011;5313;48.834;9.228;2023-07-28T14:12:30;6.60;;;4.43;;
10529;SDS011;5313;48.834;9.228;2023-07-28T14:14:55;5.40;;;4.40;;
10529;SDS011;5313;48.834;9.228;2023-07-28T14:17:21;5.70;;;4.73;;
10529;SDS011;5313;48.834;9.228;2023-07-28T14:19:46;6.20;;;4.20;;
10529;SDS011;5313;48.834;9.228;2023-07-28T14:22:13;5.40;;;4.33;;
10529;SDS011;5313;48.834;9.228;2023-07-28T14:24:38;5.03;;;4.00;;
10529;SDS011;5313;48.834;9.228;2023-07-28T14:27:04;5.97;;;4.30;;
10529;SDS011;5313;48.834;9.228;2023-07-28T14:29:30;5.10;;;4.10;;
10529;SDS011;5313;48.834;9.228;2023-07-28T14:31:56;6.97;;;4.40;;
10529;SDS011;5313;48.834;9.228;2023-07-28T14:34:21;7.23;;;4.00;;
10529;SDS011;5313;48.834;9.228;2023-07-28T14:36:47;6.53;;;4.53;;
10529;SDS011;5313;48.834;9.228;2023-07-28T14:39:13;8.30;;;4.90;;
10529;SDS011;5313;48.834;9.228;2023-07-28T14:41:38;7.47;;;5.17;;
10529;SDS011;5313;48.834;9.228;2023-07-28T14:44:04;6.77;;;5.10;;
10529;SDS011;5313;48.834;9.228;2023-07-28T14:46:29;6.03;;;4.43;;
10529;SDS011;5313;48.834;9.228;2023-07-28T14:48:55;5.93;;;5.03;;
10529;SDS011;5313;48.834;9.228;2023-07-28T14:51:21;5.73;;;4.37;;
10529;SDS011;5313;48.834;9.228;2023-07-28T14:53:46;5.87;;;3.93;;
10529;SDS011;5313;48.834;9.228;2023-07-28T14:56:12;4.43;;;3.40;;
10529;SDS011;5313;48.834;9.228;2023-07-28T14:58:39;5.87;;;4.13;;
10529;SDS011;5313;48.834;9.228;2023-07-28T15:01:06;4.97;;;3.83;;
10529;SDS011;5313;48.834;9.228;2023-07-28T15:03:32;4.30;;;3.80;;
10529;SDS011;5313;48.834;9.228;2023-07-28T15:05:59;5.90;;;3.40;;
10529;SDS011;5313;48.834;9.228;2023-07-28T15:08:26;4.90;;;4.17;;